createdAt,value
2018-06-30T00:01:27.964Z,36.10
2018-06-30T00:06:31.292Z,36.70
2018-06-30T00:11:34.389Z,37.10
2018-06-30T00:16:37.411Z,37.50
2018-06-30T00:21:40.708Z,37.80
2018-06-30T00:26:43.883Z,38.10
2018-06-30T00:31:46.901Z,38.70
2018-06-30T00:36:49.922Z,39.40
2018-06-30T00:41:53.139Z,39.70
2018-06-30T00:46:56.340Z,39.50
2018-06-30T00:51:59.411Z,39.70
2018-06-30T00:57:02.464Z,39.70
2018-06-30T01:02:05.958Z,40.10
2018-06-30T01:07:09.480Z,40.60
2018-06-30T01:12:12.680Z,40.70
2018-06-30T01:17:15.757Z,41.00
2018-06-30T01:22:18.881Z,41.40
2018-06-30T01:27:22.122Z,42.00
2018-06-30T01:32:25.523Z,42.10
2018-06-30T01:37:28.635Z,42.50
2018-06-30T01:42:31.654Z,42.60
2018-06-30T01:47:35.320Z,42.80
2018-06-30T01:52:38.564Z,43.90
2018-06-30T01:57:41.877Z,43.30
2018-06-30T02:02:44.953Z,43.60
2018-06-30T02:07:48.280Z,43.80
2018-06-30T02:12:51.521Z,43.90
2018-06-30T02:17:54.718Z,44.50
2018-06-30T02:22:57.676Z,45.60
2018-06-30T02:28:01.035Z,45.50
2018-06-30T02:33:04.052Z,45.70
2018-06-30T02:38:07.100Z,46.50
2018-06-30T02:43:10.077Z,46.80
2018-06-30T02:48:13.272Z,47.40
2018-06-30T02:53:16.459Z,47.60
2018-06-30T02:58:19.681Z,47.90
2018-06-30T03:03:22.722Z,48.20
2018-06-30T03:08:25.724Z,49.10
2018-06-30T03:13:28.694Z,49.60
2018-06-30T03:18:31.660Z,48.90
2018-06-30T03:23:34.659Z,49.20
2018-06-30T03:28:37.880Z,49.60
2018-06-30T03:33:41.208Z,49.40
2018-06-30T03:38:44.183Z,49.40
2018-06-30T03:43:47.152Z,49.40
2018-06-30T03:48:50.444Z,49.50
2018-06-30T03:53:54.242Z,49.50
2018-06-30T03:58:57.253Z,49.30
2018-06-30T04:04:00.412Z,48.20
2018-06-30T04:09:06.194Z,47.30
2018-06-30T04:14:09.840Z,46.30
2018-06-30T04:19:14.671Z,45.30
2018-06-30T04:24:17.657Z,43.50
2018-06-30T04:29:20.753Z,41.30
2018-06-30T04:34:23.804Z,38.40
2018-06-30T04:39:26.860Z,34.60
2018-06-30T04:44:29.848Z,31.70
2018-06-30T04:49:32.907Z,29.40
2018-06-30T04:54:35.942Z,28.80
2018-06-30T04:59:39.126Z,29.10
2018-06-30T05:04:42.151Z,30.00
2018-06-30T05:14:48.550Z,28.30
2018-06-30T05:19:51.870Z,27.20
2018-06-30T05:24:54.968Z,27.50
2018-06-30T05:29:58.289Z,27.60
2018-06-30T05:35:01.485Z,28.00
2018-06-30T05:40:04.561Z,28.30
2018-06-30T05:45:07.599Z,30.60
2018-06-30T05:50:11.132Z,30.60
2018-06-30T05:55:14.156Z,30.80
2018-06-30T06:00:17.231Z,28.80
2018-06-30T06:05:20.224Z,29.00
2018-06-30T06:10:23.257Z,29.70
2018-06-30T06:20:29.425Z,28.80
2018-06-30T06:25:32.413Z,29.40
2018-06-30T06:30:35.652Z,29.00
2018-06-30T06:35:38.688Z,29.50
2018-06-30T06:40:41.668Z,29.50
2018-06-30T06:45:44.819Z,26.80
2018-06-30T06:50:47.869Z,26.20
2018-06-30T06:55:51.076Z,25.60
2018-06-30T07:00:54.092Z,26.20
2018-06-30T07:05:57.264Z,25.40
2018-06-30T07:11:00.501Z,26.00
2018-06-30T07:16:03.647Z,24.80
2018-06-30T07:21:07.015Z,23.10
2018-06-30T07:26:10.223Z,23.60
2018-06-30T07:31:13.444Z,25.90
2018-06-30T07:36:16.541Z,24.20
2018-06-30T07:41:19.764Z,25.00
2018-06-30T07:46:22.875Z,24.50
2018-06-30T07:51:26.079Z,25.20
2018-06-30T07:56:29.089Z,25.70
2018-06-30T08:01:32.232Z,25.70
2018-06-30T08:06:35.609Z,26.80
2018-06-30T08:11:39.694Z,27.20
2018-06-30T08:16:42.928Z,25.80
2018-06-30T08:21:45.940Z,24.30
2018-06-30T08:26:48.968Z,24.30
2018-06-30T08:31:52.106Z,26.80
2018-06-30T08:36:55.352Z,25.80
2018-06-30T08:41:58.409Z,25.40
2018-06-30T08:47:01.412Z,24.50
2018-06-30T08:52:04.439Z,25.50
2018-06-30T08:57:07.692Z,24.60
2018-06-30T09:02:10.727Z,25.20
2018-06-30T09:07:14.113Z,26.70
2018-06-30T09:12:17.266Z,26.50
2018-06-30T09:17:20.230Z,24.60
2018-06-30T09:22:23.538Z,24.90
2018-06-30T09:27:26.608Z,25.40
2018-06-30T09:32:29.672Z,24.90
2018-06-30T09:37:32.940Z,24.70
2018-06-30T09:42:36.155Z,25.60
2018-06-30T09:47:39.477Z,26.40
2018-06-30T09:52:42.616Z,24.40
2018-06-30T09:57:45.974Z,25.10
2018-06-30T10:02:49.189Z,25.10
2018-06-30T10:07:52.380Z,26.20
2018-06-30T10:12:55.364Z,26.30
2018-06-30T10:17:58.419Z,26.00
2018-06-30T10:28:04.969Z,25.20
2018-06-30T10:33:08.480Z,24.30
2018-06-30T10:38:11.493Z,23.40
2018-06-30T10:43:14.757Z,25.20
2018-06-30T10:48:17.635Z,21.60
2018-06-30T10:53:20.857Z,22.00
2018-06-30T10:58:24.090Z,22.10
2018-06-30T11:03:27.373Z,20.60
2018-06-30T11:08:30.441Z,22.70
2018-06-30T11:13:33.564Z,22.10
2018-06-30T11:18:36.659Z,21.50
2018-06-30T11:23:39.945Z,21.10
2018-06-30T11:28:43.930Z,19.90
2018-06-30T11:33:46.962Z,19.00
2018-06-30T11:43:53.073Z,23.40
2018-06-30T11:53:59.273Z,23.80
2018-06-30T11:59:02.362Z,23.80
2018-06-30T12:04:05.617Z,23.60
2018-06-30T12:09:09.912Z,23.60
2018-06-30T12:14:13.101Z,24.60
2018-06-30T12:19:16.573Z,23.60
2018-06-30T12:24:19.956Z,22.70
2018-06-30T12:29:23.026Z,22.40
2018-06-30T12:34:26.048Z,22.10
2018-06-30T12:39:29.134Z,21.90
2018-06-30T12:44:32.483Z,24.40
2018-06-30T12:49:35.791Z,22.00
2018-06-30T12:54:39.038Z,21.70
2018-06-30T12:59:41.928Z,20.60
2018-06-30T13:04:44.996Z,22.00
2018-06-30T13:09:47.994Z,20.80
2018-06-30T13:14:51.319Z,19.60
2018-06-30T13:19:54.516Z,19.90
2018-06-30T13:24:57.644Z,20.10
2018-06-30T13:30:00.645Z,21.50
2018-06-30T13:35:03.776Z,19.70
2018-06-30T13:40:07.604Z,19.30
2018-06-30T13:45:10.932Z,18.90
2018-06-30T13:50:14.187Z,18.90
2018-06-30T13:55:17.467Z,18.10
2018-06-30T14:00:20.507Z,18.00
2018-06-30T14:05:23.814Z,18.50
2018-06-30T14:10:27.040Z,18.10
2018-06-30T14:15:30.137Z,17.50
2018-06-30T14:20:34.072Z,18.00
2018-06-30T14:25:37.527Z,17.70
2018-06-30T14:30:40.588Z,16.60
2018-06-30T14:35:43.649Z,17.70
2018-06-30T14:40:46.792Z,16.80
2018-06-30T14:45:49.941Z,16.40
2018-06-30T14:50:53.017Z,16.60
2018-06-30T14:55:56.144Z,17.20
2018-06-30T15:00:59.338Z,16.40
2018-06-30T15:06:03.211Z,16.30
2018-06-30T15:11:06.469Z,16.80
2018-06-30T15:16:09.955Z,16.60
2018-06-30T15:21:13.020Z,15.90
2018-06-30T15:26:16.759Z,15.50
2018-06-30T15:31:19.991Z,16.00
2018-06-30T15:36:23.329Z,15.70
2018-06-30T15:41:26.324Z,15.30
2018-06-30T15:46:29.388Z,16.30
2018-06-30T15:51:32.724Z,15.10
2018-06-30T15:56:35.805Z,15.20
2018-06-30T16:01:38.861Z,15.10
2018-06-30T16:06:41.901Z,15.40
2018-06-30T16:11:44.952Z,14.90
2018-06-30T16:16:48.153Z,14.50
2018-06-30T16:21:51.166Z,14.80
2018-06-30T16:26:54.204Z,14.10
2018-06-30T16:31:57.204Z,14.20
2018-06-30T16:37:00.359Z,13.90
2018-06-30T16:42:03.488Z,15.00
2018-06-30T16:47:06.585Z,14.70
2018-06-30T16:52:10.457Z,14.50
2018-06-30T16:57:13.750Z,14.00
2018-06-30T17:02:16.888Z,13.40
2018-06-30T17:07:19.985Z,14.00
2018-06-30T17:12:23.126Z,14.10
2018-06-30T17:17:26.253Z,12.80
2018-06-30T17:22:29.514Z,12.70
2018-06-30T17:27:32.714Z,12.40
2018-06-30T17:32:35.793Z,12.10
2018-06-30T17:37:39.740Z,11.90
2018-06-30T17:42:42.833Z,11.50
2018-06-30T17:47:45.925Z,11.10
2018-06-30T17:52:49.034Z,11.50
2018-06-30T17:57:52.097Z,11.00
2018-06-30T18:02:55.444Z,11.40
2018-06-30T18:07:58.483Z,10.80
2018-06-30T18:13:01.946Z,10.80
2018-06-30T18:18:05.253Z,11.20
2018-06-30T18:23:08.324Z,10.90
2018-06-30T18:28:11.328Z,11.50
2018-06-30T18:33:14.467Z,11.70
2018-06-30T18:38:17.682Z,11.80
2018-06-30T18:43:20.861Z,10.70
2018-06-30T18:48:24.086Z,10.90
2018-06-30T18:53:27.104Z,10.70
2018-06-30T18:58:30.300Z,10.50
2018-06-30T19:03:33.560Z,10.80
2018-06-30T19:08:36.734Z,10.80
2018-06-30T19:13:39.766Z,11.10
2018-06-30T19:18:43.073Z,11.40
2018-06-30T19:23:46.202Z,11.20
2018-06-30T19:28:49.221Z,11.60
2018-06-30T19:33:52.241Z,12.00
2018-06-30T19:38:55.428Z,12.70
2018-06-30T19:43:58.675Z,13.30
2018-06-30T19:49:01.745Z,13.60
2018-06-30T19:54:05.003Z,13.90
2018-06-30T19:59:08.325Z,14.30
2018-06-30T20:04:11.827Z,14.70
2018-06-30T20:09:14.860Z,15.10
2018-06-30T20:14:17.904Z,15.20
2018-06-30T20:19:21.159Z,15.30
2018-06-30T20:24:24.181Z,15.20
2018-06-30T20:29:27.456Z,15.30
2018-06-30T20:34:30.502Z,15.50
2018-06-30T20:39:33.564Z,15.70
2018-06-30T20:44:36.664Z,15.70
2018-06-30T20:49:39.947Z,16.10
2018-06-30T20:54:43.027Z,16.10
2018-06-30T20:59:46.307Z,16.40
2018-06-30T21:04:49.616Z,16.60
2018-06-30T21:09:52.842Z,16.90
2018-06-30T21:14:56.541Z,17.20
2018-06-30T21:19:59.862Z,17.50
2018-06-30T21:25:04.273Z,17.70
2018-06-30T21:30:07.361Z,18.00
2018-06-30T21:35:10.749Z,18.20
2018-06-30T21:40:14.431Z,18.40
2018-06-30T21:45:17.753Z,18.50
2018-06-30T21:50:20.819Z,18.90
2018-06-30T21:55:24.049Z,19.00
2018-06-30T22:00:53.362Z,19.40
2018-06-30T22:05:57.660Z,19.80
2018-06-30T22:11:01.084Z,19.90
2018-06-30T22:16:04.153Z,19.90
2018-06-30T22:21:08.036Z,20.00
2018-06-30T22:26:11.127Z,20.00
2018-06-30T22:31:14.377Z,19.80
2018-06-30T22:36:17.453Z,20.00
2018-06-30T22:41:20.467Z,20.00
2018-06-30T22:46:23.676Z,20.10
2018-06-30T22:51:27.191Z,20.10
2018-06-30T22:56:30.191Z,20.50
2018-06-30T23:01:33.374Z,21.00
2018-06-30T23:06:36.714Z,21.30
2018-06-30T23:11:39.747Z,21.40
2018-06-30T23:16:42.775Z,21.60
2018-06-30T23:21:45.818Z,22.10
2018-06-30T23:26:48.970Z,22.60
2018-06-30T23:31:52.317Z,23.30
2018-06-30T23:36:55.434Z,23.60
2018-06-30T23:41:58.482Z,24.10
2018-06-30T23:47:01.699Z,24.80
2018-06-30T23:52:05.082Z,25.70
2018-06-30T23:57:08.156Z,24.60
